Time;durP1;ratioP1;P1;durP2;ratioP2;P2;SDS_P1;SDS_P2;PMS_P1;PMS_P2;Temp;Humidity;BMP_temperature;BMP_pressure;BME280_temperature;BME280_humidity;BME280_pressure;Samples;Min_cycle;Max_cycle;Signal;HPM_P1;HPM_P2
2023/08/10 00:01:43;;;;;;;;;;;20.40;72.10;;;;;;4170140;28;19999;-50
2023/08/10 00:04:24;;;;;;;;;;;20.40;73.00;;;;;;4155142;28;19936;-50
2023/08/10 00:07:05;;;;;;;;;;;20.40;72.20;;;;;;4154394;28;20008;-50
2023/08/10 00:09:46;;;;;;;;;;;20.30;72.20;;;;;;4170934;28;20287;-50
2023/08/10 00:12:26;;;;;;;;;;;20.30;72.30;;;;;;4170792;28;20375;-50
2023/08/10 00:15:07;;;;;;;;;;;20.30;72.30;;;;;;4147410;28;20292;-50
2023/08/10 00:17:50;;;;;;;;;;;20.30;72.30;;;;;;4138507;28;19933;-49
2023/08/10 00:20:30;;;;;;;;;;;20.30;72.30;;;;;;4146216;28;20387;-52
2023/08/10 00:23:11;;;;;;;;;;;20.30;72.30;;;;;;4153118;28;19933;-50
2023/08/10 00:25:52;;;;;;;;;;;20.30;72.30;;;;;;4151672;28;20395;-52
2023/08/10 00:28:33;;;;;;;;;;;20.30;72.40;;;;;;4155216;28;19935;-49
2023/08/10 00:31:14;;;;;;;;;;;20.30;72.40;;;;;;4154410;28;20404;-50
2023/08/10 00:33:56;;;;;;;;;;;20.30;72.50;;;;;;4154300;28;19933;-52
2023/08/10 00:36:37;;;;;;;;;;;20.30;72.50;;;;;;4145407;28;19932;-51
2023/08/10 00:39:18;;;;;;;;;;;20.30;72.50;;;;;;4130572;28;20433;-53
2023/08/10 00:41:59;;;;;;;;;;;20.20;72.60;;;;;;4154448;28;19952;-51
2023/08/10 00:44:40;;;;;;;;;;;20.20;72.70;;;;;;4141864;28;19982;-50
2023/08/10 00:47:22;;;;;;;;;;;20.30;72.80;;;;;;4151670;28;19936;-53
2023/08/10 00:50:05;;;;;;;;;;;20.20;72.80;;;;;;4124711;28;19932;-51
2023/08/10 00:52:46;;;;;;;;;;;20.20;72.90;;;;;;4137723;28;19932;-52
2023/08/10 00:55:27;;;;;;;;;;;20.20;73.10;;;;;;4127055;28;19933;-53
2023/08/10 00:58:08;;;;;;;;;;;20.20;73.10;;;;;;4152086;28;20087;-51
2023/08/10 01:00:50;;;;;;;;;;;20.20;73.20;;;;;;4150239;28;19932;-53
2023/08/10 01:03:31;;;;;;;;;;;20.20;73.20;;;;;;4163610;28;20387;-54
2023/08/10 01:06:17;;;;;;;;;;;20.20;73.40;;;;;;4140593;28;19936;-52
2023/08/10 01:09:03;;;;;;;;;;;20.20;73.40;;;;;;4151482;28;19936;-50
2023/08/10 01:11:49;;;;;;;;;;;20.10;73.40;;;;;;4142881;28;20039;-54
2023/08/10 01:14:33;;;;;;;;;;;20.10;73.60;;;;;;4142972;28;19994;-51
2023/08/10 01:17:18;;;;;;;;;;;20.10;73.60;;;;;;4166620;28;19936;-52
2023/08/10 01:20:00;;;;;;;;;;;20.10;73.60;;;;;;4163035;28;19933;-53
2023/08/10 01:22:48;;;;;;;;;;;20.10;73.70;;;;;;4155853;28;20326;-50
2023/08/10 01:25:30;;;;;;;;;;;20.10;73.90;;;;;;4139922;28;19952;-52
2023/08/10 01:28:12;;;;;;;;;;;20.20;74.00;;;;;;4140846;28;20510;-51
2023/08/10 01:30:53;;;;;;;;;;;20.10;74.00;;;;;;4141068;28;19936;-50
2023/08/10 01:33:34;;;;;;;;;;;20.10;74.00;;;;;;4145825;28;20352;-51
2023/08/10 01:36:15;;;;;;;;;;;20.10;74.10;;;;;;4173346;28;19936;-54
2023/08/10 01:38:56;;;;;;;;;;;20.10;74.10;;;;;;4161089;28;19995;-51
2023/08/10 01:41:38;;;;;;;;;;;20.10;74.20;;;;;;4144435;28;19932;-54
2023/08/10 01:44:19;;;;;;;;;;;20.10;74.30;;;;;;4140498;28;19937;-51
2023/08/10 01:47:02;;;;;;;;;;;20.10;74.40;;;;;;4149637;28;19933;-54
2023/08/10 01:49:43;;;;;;;;;;;20.10;74.50;;;;;;4143815;28;19936;-53
2023/08/10 01:52:26;;;;;;;;;;;20.10;74.60;;;;;;4156323;28;19936;-51
2023/08/10 01:55:09;;;;;;;;;;;20.10;74.60;;;;;;4139629;28;19936;-54
2023/08/10 01:57:51;;;;;;;;;;;20.10;74.70;;;;;;4140028;28;20477;-51
2023/08/10 02:00:33;;;;;;;;;;;20.10;74.80;;;;;;4155673;28;20403;-53
2023/08/10 02:03:14;;;;;;;;;;;20.10;74.90;;;;;;4159629;28;19982;-55
2023/08/10 02:05:55;;;;;;;;;;;20.00;74.80;;;;;;4143824;28;20018;-56
2023/08/10 02:08:36;;;;;;;;;;;20.00;75.70;;;;;;4156153;28;19932;-55
2023/08/10 02:11:18;;;;;;;;;;;20.00;74.90;;;;;;4150567;28;19940;-54
2023/08/10 02:14:00;;;;;;;;;;;20.00;74.90;;;;;;4138203;28;19932;-53
2023/08/10 02:16:41;;;;;;;;;;;20.00;75.00;;;;;;4182905;28;19936;-54
2023/08/10 02:19:22;;;;;;;;;;;20.00;75.00;;;;;;4160590;28;19939;-52
2023/08/10 02:22:03;;;;;;;;;;;20.00;75.00;;;;;;4172545;28;19932;-54
2023/08/10 02:24:44;;;;;;;;;;;20.00;75.10;;;;;;4156500;28;19975;-54
2023/08/10 02:27:25;;;;;;;;;;;20.00;75.20;;;;;;4132339;28;20296;-52
2023/08/10 02:30:08;;;;;;;;;;;20.00;75.20;;;;;;4146662;28;19936;-52
2023/08/10 02:32:49;;;;;;;;;;;20.00;75.20;;;;;;4139114;28;20490;-54
2023/08/10 02:35:30;;;;;;;;;;;20.00;75.20;;;;;;4123420;28;19932;-54
2023/08/10 02:38:10;;;;;;;;;;;20.00;75.20;;;;;;4133784;28;20003;-52
2023/08/10 02:40:51;;;;;;;;;;;20.00;75.20;;;;;;4128924;28;20052;-55
2023/08/10 02:43:32;;;;;;;;;;;20.00;75.20;;;;;;4154907;28;19936;-54
2023/08/10 02:46:14;;;;;;;;;;;20.00;75.30;;;;;;4139467;28;20039;-55
2023/08/10 02:48:55;;;;;;;;;;;20.00;75.30;;;;;;4155720;28;19936;-52
2023/08/10 02:51:36;;;;;;;;;;;19.90;75.30;;;;;;4137652;28;20011;-50
2023/08/10 02:54:17;;;;;;;;;;;20.00;75.30;;;;;;4152734;28;19936;-50
2023/08/10 02:56:58;;;;;;;;;;;20.00;75.30;;;;;;4155398;28;20034;-49
2023/08/10 02:59:39;;;;;;;;;;;19.90;76.20;;;;;;4126683;28;19960;-50
2023/08/10 03:02:21;;;;;;;;;;;19.90;75.40;;;;;;4134841;28;19936;-50
2023/08/10 03:05:02;;;;;;;;;;;20.00;75.50;;;;;;4135113;28;19992;-50
2023/08/10 03:07:43;;;;;;;;;;;19.90;75.40;;;;;;4148039;28;19941;-50
2023/08/10 03:10:24;;;;;;;;;;;19.90;75.50;;;;;;4154858;28;20300;-52
2023/08/10 03:13:04;;;;;;;;;;;19.90;75.50;;;;;;4143351;28;20014;-50
2023/08/10 03:15:45;;;;;;;;;;;19.90;76.40;;;;;;4152984;28;20429;-49
2023/08/10 03:18:28;;;;;;;;;;;19.90;75.60;;;;;;4158914;28;19944;-49
2023/08/10 03:21:08;;;;;;;;;;;19.90;75.60;;;;;;4144297;28;19932;-53
2023/08/10 03:23:49;;;;;;;;;;;19.90;75.60;;;;;;4153412;28;19967;-50
2023/08/10 03:26:30;;;;;;;;;;;19.90;75.60;;;;;;4154160;28;19932;-52
2023/08/10 03:29:11;;;;;;;;;;;19.90;75.60;;;;;;4138686;28;19932;-51
2023/08/10 03:31:52;;;;;;;;;;;19.90;75.60;;;;;;4152119;28;19936;-50
2023/08/10 03:34:34;;;;;;;;;;;19.90;75.60;;;;;;4142654;28;20090;-49
2023/08/10 03:37:15;;;;;;;;;;;19.90;75.60;;;;;;4139803;28;20023;-50
2023/08/10 03:39:55;;;;;;;;;;;19.90;75.60;;;;;;4142359;28;19971;-50
2023/08/10 03:42:36;;;;;;;;;;;19.90;75.70;;;;;;4158796;28;20268;-51
2023/08/10 03:45:18;;;;;;;;;;;19.90;75.70;;;;;;4158927;28;19940;-50
2023/08/10 03:47:59;;;;;;;;;;;19.90;75.70;;;;;;4155947;28;19990;-55
2023/08/10 03:50:42;;;;;;;;;;;19.80;75.60;;;;;;4142315;28;19936;-55
2023/08/10 03:53:23;;;;;;;;;;;19.90;75.70;;;;;;4154389;28;20392;-56
2023/08/10 03:56:03;;;;;;;;;;;19.80;75.70;;;;;;4142353;28;19998;-54
2023/08/10 03:58:45;;;;;;;;;;;19.90;76.70;;;;;;4141418;28;20128;-56
2023/08/10 04:01:27;;;;;;;;;;;19.90;75.80;;;;;;4152670;28;19935;-55
2023/08/10 04:04:08;;;;;;;;;;;19.90;75.90;;;;;;4136373;28;19937;-49
2023/08/10 04:06:50;;;;;;;;;;;19.80;75.80;;;;;;4151122;28;19935;-49
2023/08/10 04:09:31;;;;;;;;;;;19.90;75.90;;;;;;4146796;28;19936;-52
2023/08/10 04:12:11;;;;;;;;;;;19.80;75.90;;;;;;4123648;28;20035;-50
2023/08/10 04:14:52;;;;;;;;;;;19.80;76.80;;;;;;4148920;28;19931;-50
2023/08/10 04:17:33;;;;;;;;;;;19.80;75.90;;;;;;4137365;28;20476;-51
2023/08/10 04:20:14;;;;;;;;;;;19.80;76.00;;;;;;4138847;28;19951;-50
2023/08/10 04:22:57;;;;;;;;;;;19.80;76.00;;;;;;4154376;28;19936;-51
2023/08/10 04:25:38;;;;;;;;;;;19.80;76.00;;;;;;4138678;28;20312;-49
2023/08/10 04:28:19;;;;;;;;;;;19.80;76.10;;;;;;4154064;28;19936;-50
2023/08/10 04:31:00;;;;;;;;;;;19.80;77.00;;;;;;4153922;28;19932;-54
2023/08/10 04:33:41;;;;;;;;;;;19.80;76.10;;;;;;4154213;28;19978;-53
2023/08/10 04:36:22;;;;;;;;;;;19.80;76.10;;;;;;4141003;28;19937;-49
2023/08/10 04:39:04;;;;;;;;;;;19.80;76.40;;;;;;4154394;28;19936;-52
2023/08/10 04:41:45;;;;;;;;;;;19.90;76.90;;;;;;4136916;28;20068;-54
2023/08/10 04:44:26;;;;;;;;;;;19.90;76.90;;;;;;4146100;28;19936;-52
2023/08/10 04:47:07;;;;;;;;;;;19.90;76.80;;;;;;4153785;28;20387;-50
2023/08/10 04:49:47;;;;;;;;;;;19.90;77.70;;;;;;4155077;28;19982;-51
2023/08/10 04:52:28;;;;;;;;;;;19.90;76.80;;;;;;4151879;28;20335;-51
2023/08/10 04:55:11;;;;;;;;;;;19.90;76.80;;;;;;4144443;28;19932;-49
2023/08/10 04:57:53;;;;;;;;;;;19.90;76.90;;;;;;4157382;28;19979;-50
2023/08/10 05:00:33;;;;;;;;;;;19.90;77.00;;;;;;4157313;28;20059;-50
2023/08/10 05:03:14;;;;;;;;;;;19.90;77.10;;;;;;4156524;28;20288;-50
2023/08/10 05:05:55;;;;;;;;;;;19.80;77.10;;;;;;4156803;28;20450;-52
2023/08/10 05:08:36;;;;;;;;;;;19.80;77.10;;;;;;4156728;28;20014;-52
2023/08/10 05:11:17;;;;;;;;;;;19.80;77.20;;;;;;4147692;28;20001;-54
2023/08/10 05:13:59;;;;;;;;;;;19.80;77.20;;;;;;4166737;28;19971;-53
2023/08/10 05:16:39;;;;;;;;;;;19.80;77.20;;;;;;4172903;28;20066;-49
2023/08/10 05:19:20;;;;;;;;;;;19.80;77.20;;;;;;4163038;28;19932;-50
2023/08/10 05:22:00;;;;;;;;;;;19.80;77.20;;;;;;4157253;28;19936;-50
2023/08/10 05:24:42;;;;;;;;;;;19.80;77.20;;;;;;4156613;28;19951;-50
2023/08/10 05:27:24;;;;;;;;;;;19.80;77.20;;;;;;4156726;28;20433;-48
2023/08/10 05:30:06;;;;;;;;;;;19.80;77.20;;;;;;4154649;28;19932;-49
2023/08/10 05:32:47;;;;;;;;;;;19.80;78.10;;;;;;4144307;28;19979;-50
2023/08/10 05:35:28;;;;;;;;;;;19.80;77.20;;;;;;4139412;28;19935;-50
2023/08/10 05:38:09;;;;;;;;;;;19.80;77.10;;;;;;4156609;28;19932;-50
2023/08/10 05:40:50;;;;;;;;;;;19.80;77.10;;;;;;4150091;28;19932;-52
2023/08/10 05:43:32;;;;;;;;;;;19.80;77.10;;;;;;4172495;28;20292;-49
2023/08/10 05:46:13;;;;;;;;;;;19.80;77.20;;;;;;4160282;28;20062;-49
2023/08/10 05:48:54;;;;;;;;;;;19.80;77.10;;;;;;4172360;28;19947;-50
2023/08/10 05:51:34;;;;;;;;;;;19.80;77.10;;;;;;4156051;28;20333;-52
2023/08/10 05:54:15;;;;;;;;;;;19.80;77.10;;;;;;4141441;28;19932;-50
2023/08/10 05:56:56;;;;;;;;;;;19.80;77.10;;;;;;4171336;28;19974;-51
2023/08/10 05:59:41;;;;;;;;;;;19.80;77.10;;;;;;4124951;28;19933;-50
2023/08/10 06:02:22;;;;;;;;;;;19.80;77.10;;;;;;4140371;28;20001;-49
2023/08/10 06:05:06;;;;;;;;;;;19.80;77.10;;;;;;4159895;28;19935;-51
2023/08/10 06:07:47;;;;;;;;;;;19.80;77.10;;;;;;4170776;28;19935;-51
2023/08/10 06:10:28;;;;;;;;;;;19.80;77.10;;;;;;4139633;28;20364;-49
2023/08/10 06:13:09;;;;;;;;;;;19.80;77.10;;;;;;4137889;28;19979;-50
2023/08/10 06:15:51;;;;;;;;;;;19.80;77.10;;;;;;4139774;28;20004;-50
2023/08/10 06:18:32;;;;;;;;;;;19.80;77.10;;;;;;4155458;28;19932;-49
2023/08/10 06:21:13;;;;;;;;;;;19.80;77.10;;;;;;4155505;28;20023;-50
2023/08/10 06:23:54;;;;;;;;;;;19.80;77.10;;;;;;4156145;28;19935;-49
2023/08/10 06:26:34;;;;;;;;;;;19.80;77.10;;;;;;4155649;28;19936;-50
2023/08/10 06:29:16;;;;;;;;;;;19.80;77.10;;;;;;4154586;28;20059;-51
2023/08/10 06:31:58;;;;;;;;;;;19.80;77.10;;;;;;4155580;28;19951;-52
2023/08/10 06:34:38;;;;;;;;;;;19.90;77.20;;;;;;4155721;28;19931;-49
2023/08/10 06:37:20;;;;;;;;;;;19.90;77.20;;;;;;4155640;28;19936;-50
2023/08/10 06:40:01;;;;;;;;;;;19.90;77.20;;;;;;4155353;28;20018;-49
2023/08/10 06:42:42;;;;;;;;;;;20.00;77.30;;;;;;4148592;28;20059;-50
2023/08/10 06:45:31;;;;;;;;;;;20.10;77.10;;;;;;4143132;28;20107;-51
2023/08/10 06:48:14;;;;;;;;;;;20.10;76.90;;;;;;4153094;28;19988;-52
2023/08/10 06:50:57;;;;;;;;;;;20.20;77.60;;;;;;4155221;28;19979;-54
2023/08/10 06:53:38;;;;;;;;;;;20.20;76.50;;;;;;4155514;28;20320;-53
2023/08/10 06:56:18;;;;;;;;;;;20.30;76.40;;;;;;4139379;28;19960;-55
2023/08/10 06:58:59;;;;;;;;;;;20.40;76.30;;;;;;4154714;28;20056;-56
2023/08/10 07:01:43;;;;;;;;;;;20.40;76.10;;;;;;4141616;28;19936;-54
2023/08/10 07:04:25;;;;;;;;;;;20.50;77.00;;;;;;4171653;28;20034;-50
2023/08/10 07:07:06;;;;;;;;;;;20.50;76.00;;;;;;4158368;28;19936;-53
2023/08/10 07:09:47;;;;;;;;;;;20.60;75.70;;;;;;4150940;28;19978;-51
2023/08/10 07:12:28;;;;;;;;;;;20.60;75.20;;;;;;4153534;28;20392;-50
2023/08/10 07:15:09;;;;;;;;;;;20.70;74.70;;;;;;4150942;28;19978;-53
2023/08/10 07:17:50;;;;;;;;;;;20.70;74.10;;;;;;4153359;28;19948;-49
2023/08/10 07:20:33;;;;;;;;;;;20.80;73.80;;;;;;4154811;28;20316;-49
2023/08/10 07:23:17;;;;;;;;;;;20.80;73.50;;;;;;4155165;28;19932;-50
2023/08/10 07:25:58;;;;;;;;;;;20.80;73.10;;;;;;4154225;28;19982;-49
2023/08/10 07:28:39;;;;;;;;;;;20.90;72.90;;;;;;4143387;28;20054;-49
2023/08/10 07:31:20;;;;;;;;;;;20.90;72.60;;;;;;4150135;28;20292;-49
2023/08/10 07:34:01;;;;;;;;;;;20.90;73.20;;;;;;4152286;28;19932;-49
2023/08/10 07:36:43;;;;;;;;;;;21.00;72.30;;;;;;4154978;28;20002;-50
2023/08/10 07:39:24;;;;;;;;;;;21.00;72.20;;;;;;4153197;28;20011;-54
2023/08/10 07:42:05;;;;;;;;;;;21.00;72.10;;;;;;4153808;28;19971;-54
2023/08/10 07:44:46;;;;;;;;;;;21.00;72.10;;;;;;4143523;28;20372;-53
2023/08/10 07:47:27;;;;;;;;;;;21.00;72.10;;;;;;4154194;28;19932;-53
2023/08/10 07:50:07;;;;;;;;;;;21.00;72.00;;;;;;4154690;28;19936;-53
2023/08/10 07:52:49;;;;;;;;;;;21.10;71.90;;;;;;4170771;28;19935;-53
2023/08/10 07:55:30;;;;;;;;;;;21.00;71.70;;;;;;4170796;28;19932;-51
2023/08/10 07:58:12;;;;;;;;;;;21.10;71.70;;;;;;4170799;28;19936;-52
2023/08/10 08:00:53;;;;;;;;;;;21.00;71.60;;;;;;4136765;28;19980;-53
2023/08/10 08:03:34;;;;;;;;;;;21.00;71.50;;;;;;4141987;28;20110;-54
2023/08/10 08:06:16;;;;;;;;;;;21.00;71.50;;;;;;4152689;28;20387;-53
2023/08/10 08:08:59;;;;;;;;;;;21.00;71.50;;;;;;4138145;28;20003;-53
2023/08/10 08:11:40;;;;;;;;;;;21.00;71.50;;;;;;4153699;28;20326;-53
2023/08/10 08:14:21;;;;;;;;;;;21.00;71.80;;;;;;4147086;28;20291;-50
2023/08/10 08:17:01;;;;;;;;;;;21.00;71.80;;;;;;4153455;28;19998;-51
2023/08/10 08:19:42;;;;;;;;;;;21.00;71.60;;;;;;4148163;28;20470;-50
2023/08/10 08:22:23;;;;;;;;;;;21.00;71.60;;;;;;4171965;28;19932;-51
2023/08/10 08:25:05;;;;;;;;;;;21.00;71.50;;;;;;4173722;28;20410;-50
2023/08/10 08:27:46;;;;;;;;;;;21.00;71.50;;;;;;4142394;28;19940;-50
2023/08/10 08:30:27;;;;;;;;;;;21.00;71.50;;;;;;4142965;28;19963;-50
2023/08/10 08:33:09;;;;;;;;;;;21.00;71.30;;;;;;4166443;28;20359;-51
2023/08/10 08:35:50;;;;;;;;;;;21.00;72.00;;;;;;4144057;28;20395;-51
2023/08/10 08:38:32;;;;;;;;;;;21.00;70.90;;;;;;4141856;28;20407;-53
2023/08/10 08:41:17;;;;;;;;;;;21.00;70.90;;;;;;4140846;28;19936;-53
2023/08/10 08:43:58;;;;;;;;;;;21.00;71.40;;;;;;4155542;28;19936;-54
2023/08/10 08:46:40;;;;;;;;;;;21.00;70.90;;;;;;4139749;28;19932;-51
2023/08/10 08:49:22;;;;;;;;;;;21.10;70.90;;;;;;4166365;28;19936;-52
2023/08/10 08:52:03;;;;;;;;;;;21.00;70.90;;;;;;4153078;28;19936;-54
2023/08/10 08:54:44;;;;;;;;;;;21.00;70.90;;;;;;4155924;28;19936;-51
2023/08/10 08:57:26;;;;;;;;;;;21.10;70.90;;;;;;4157236;28;19936;-55
2023/08/10 09:00:08;;;;;;;;;;;21.10;70.70;;;;;;4155576;28;20287;-55
2023/08/10 09:02:50;;;;;;;;;;;21.10;70.70;;;;;;4140178;28;19968;-54
2023/08/10 09:05:31;;;;;;;;;;;21.10;70.50;;;;;;4127823;28;19932;-52
2023/08/10 09:08:13;;;;;;;;;;;21.10;70.30;;;;;;4140295;28;20079;-55
2023/08/10 09:10:53;;;;;;;;;;;21.10;70.20;;;;;;4147953;28;19932;-55
2023/08/10 09:13:36;;;;;;;;;;;21.10;70.90;;;;;;4160727;28;20367;-53
2023/08/10 09:16:16;;;;;;;;;;;21.10;70.00;;;;;;4173379;28;19932;-55
2023/08/10 09:18:57;;;;;;;;;;;21.10;69.80;;;;;;4140455;28;20391;-55
2023/08/10 09:21:38;;;;;;;;;;;21.10;70.50;;;;;;4139333;28;20506;-55
2023/08/10 09:24:19;;;;;;;;;;;21.10;69.40;;;;;;4126699;28;19933;-54
2023/08/10 09:27:02;;;;;;;;;;;21.10;69.20;;;;;;4140508;28;19944;-52
2023/08/10 09:29:45;;;;;;;;;;;21.10;69.30;;;;;;4140395;28;20011;-54
2023/08/10 09:32:26;;;;;;;;;;;21.10;69.20;;;;;;4149633;28;20382;-54
2023/08/10 09:35:12;;;;;;;;;;;21.10;69.10;;;;;;4150425;28;20823;-52
2023/08/10 09:37:58;;;;;;;;;;;21.10;69.90;;;;;;4148586;28;19940;-53
2023/08/10 09:40:39;;;;;;;;;;;21.10;68.80;;;;;;4142680;28;19975;-52
2023/08/10 09:43:20;;;;;;;;;;;21.10;68.60;;;;;;4156608;28;19936;-55
2023/08/10 09:46:06;;;;;;;;;;;21.10;68.40;;;;;;4155337;28;19985;-54
2023/08/10 09:48:47;;;;;;;;;;;21.10;68.40;;;;;;4153927;28;19992;-53
2023/08/10 09:51:37;;;;;;;;;;;21.10;68.40;;;;;;4154250;28;20383;-55
2023/08/10 09:54:18;;;;;;;;;;;21.10;68.30;;;;;;4154274;28;19943;-55
2023/08/10 09:56:58;;;;;;;;;;;21.10;68.20;;;;;;4139609;28;20259;-56
2023/08/10 09:59:39;;;;;;;;;;;21.10;68.20;;;;;;4139321;28;20031;-56
2023/08/10 10:02:22;;;;;;;;;;;21.10;67.90;;;;;;4144873;28;20524;-55
2023/08/10 10:05:06;;;;;;;;;;;21.20;67.80;;;;;;4154614;28;19936;-55
2023/08/10 10:07:48;;;;;;;;;;;21.10;68.50;;;;;;4146463;28;19932;-55
2023/08/10 10:10:30;;;;;;;;;;;21.10;67.60;;;;;;4139766;28;20284;-55
2023/08/10 10:13:12;;;;;;;;;;;21.10;67.70;;;;;;4139182;28;19947;-55
2023/08/10 10:15:54;;;;;;;;;;;21.20;67.60;;;;;;4153986;28;19936;-53
2023/08/10 10:18:37;;;;;;;;;;;21.20;67.60;;;;;;4138470;28;20427;-53
2023/08/10 10:21:18;;;;;;;;;;;21.20;67.60;;;;;;4138190;28;20019;-52
2023/08/10 10:23:59;;;;;;;;;;;21.20;67.60;;;;;;4139001;28;20423;-58
2023/08/10 10:26:57;;;;;;;;;;;21.20;67.50;;;;;;4145341;28;20300;-55
2023/08/10 10:29:38;;;;;;;;;;;21.20;67.50;;;;;;4142213;28;19938;-55
2023/08/10 10:32:20;;;;;;;;;;;21.20;67.40;;;;;;4141654;28;19963;-55
2023/08/10 10:35:02;;;;;;;;;;;21.30;67.70;;;;;;4161605;28;19936;-56
2023/08/10 10:37:43;;;;;;;;;;;21.20;67.80;;;;;;4154701;28;19975;-56
2023/08/10 10:40:25;;;;;;;;;;;21.30;68.00;;;;;;4143043;28;19989;-61
2023/08/10 10:43:07;;;;;;;;;;;21.30;68.00;;;;;;4148440;28;19932;-55
2023/08/10 10:45:48;;;;;;;;;;;21.30;68.10;;;;;;4137730;28;19933;-51
2023/08/10 10:48:33;;;;;;;;;;;21.40;67.90;;;;;;4140907;28;19948;-55
2023/08/10 10:51:16;;;;;;;;;;;21.40;67.60;;;;;;4172065;28;19931;-55
2023/08/10 10:53:58;;;;;;;;;;;21.40;67.60;;;;;;4172017;28;20005;-56
2023/08/10 10:56:39;;;;;;;;;;;21.40;67.30;;;;;;4165625;28;20010;-55
2023/08/10 10:59:20;;;;;;;;;;;21.40;66.70;;;;;;4164775;28;20018;-55
2023/08/10 11:02:02;;;;;;;;;;;21.40;66.40;;;;;;4155135;28;19936;-53
2023/08/10 11:04:43;;;;;;;;;;;21.40;66.10;;;;;;4142666;28;19932;-54
2023/08/10 11:07:25;;;;;;;;;;;21.40;66.00;;;;;;4140306;28;19975;-51
2023/08/10 11:10:07;;;;;;;;;;;21.40;65.80;;;;;;4138511;28;20064;-55
2023/08/10 11:12:49;;;;;;;;;;;21.50;65.80;;;;;;4139517;28;19948;-56
2023/08/10 11:15:30;;;;;;;;;;;21.50;65.70;;;;;;4147194;28;19936;-55
2023/08/10 11:18:11;;;;;;;;;;;21.50;65.70;;;;;;4140280;28;20308;-54
2023/08/10 11:20:53;;;;;;;;;;;21.50;65.70;;;;;;4182083;28;20355;-53
2023/08/10 11:23:35;;;;;;;;;;;21.50;65.70;;;;;;4158935;28;19931;-52
2023/08/10 11:26:16;;;;;;;;;;;21.50;65.70;;;;;;4169814;28;19943;-55
2023/08/10 11:28:58;;;;;;;;;;;21.50;65.70;;;;;;4153543;28;19932;-55
2023/08/10 11:31:39;;;;;;;;;;;21.50;65.80;;;;;;4154700;28;19936;-56
2023/08/10 11:34:24;;;;;;;;;;;21.50;65.90;;;;;;4154852;28;19933;-55
2023/08/10 11:37:06;;;;;;;;;;;21.60;65.90;;;;;;4154474;28;19948;-55
2023/08/10 11:39:49;;;;;;;;;;;21.60;66.00;;;;;;4155188;28;20316;-52
2023/08/10 11:42:34;;;;;;;;;;;21.60;65.90;;;;;;4144580;28;19933;-55
2023/08/10 11:45:17;;;;;;;;;;;21.60;65.90;;;;;;4138191;28;20007;-53
2023/08/10 11:47:58;;;;;;;;;;;21.60;65.90;;;;;;4137643;28;19937;-53
2023/08/10 11:50:43;;;;;;;;;;;21.70;65.90;;;;;;4147387;28;20007;-54
2023/08/10 11:53:25;;;;;;;;;;;21.70;66.00;;;;;;4141084;28;20016;-55
2023/08/10 11:56:08;;;;;;;;;;;21.70;65.90;;;;;;4171201;28;19998;-54
2023/08/10 11:58:49;;;;;;;;;;;21.70;65.90;;;;;;4171095;28;19931;-55
2023/08/10 12:01:30;;;;;;;;;;;21.70;65.80;;;;;;4170392;28;19932;-56
2023/08/10 12:04:11;;;;;;;;;;;21.70;65.70;;;;;;4136922;28;20079;-54
2023/08/10 12:06:52;;;;;;;;;;;21.70;65.70;;;;;;4137989;28;19979;-54
2023/08/10 12:09:33;;;;;;;;;;;21.70;65.60;;;;;;4133861;28;19932;-54
2023/08/10 12:12:15;;;;;;;;;;;21.70;66.50;;;;;;4154133;28;19932;-54
2023/08/10 12:14:56;;;;;;;;;;;21.80;65.70;;;;;;4140613;28;19937;-55
2023/08/10 12:17:37;;;;;;;;;;;21.80;65.70;;;;;;4153194;28;19948;-75
2023/08/10 12:20:18;;;;;;;;;;;21.80;66.50;;;;;;4153883;28;20022;-74
2023/08/10 12:23:01;;;;;;;;;;;21.80;65.60;;;;;;4152114;28;20001;-68
2023/08/10 12:25:44;;;;;;;;;;;21.80;65.60;;;;;;4154043;28;19952;-70
2023/08/10 12:28:26;;;;;;;;;;;21.80;65.70;;;;;;4139352;28;19932;-55
2023/08/10 12:31:08;;;;;;;;;;;21.80;65.80;;;;;;4138152;28;19936;-55
2023/08/10 12:33:50;;;;;;;;;;;21.80;65.80;;;;;;4136422;28;20067;-54
2023/08/10 12:36:31;;;;;;;;;;;21.80;65.90;;;;;;4138027;28;20272;-54
2023/08/10 12:39:12;;;;;;;;;;;21.80;66.00;;;;;;4136857;28;20038;-54
2023/08/10 12:41:52;;;;;;;;;;;21.80;66.90;;;;;;4138006;28;19933;-51
2023/08/10 12:44:35;;;;;;;;;;;21.90;66.10;;;;;;4125314;28;19972;-51
2023/08/10 12:47:15;;;;;;;;;;;21.80;66.10;;;;;;4137700;28;19952;-53
2023/08/10 12:50:01;;;;;;;;;;;21.80;66.20;;;;;;4146585;28;20000;-54
2023/08/10 12:52:43;;;;;;;;;;;21.90;66.20;;;;;;4153897;28;19948;-52
2023/08/10 12:55:24;;;;;;;;;;;21.90;66.20;;;;;;4150789;28;20024;-55
2023/08/10 12:58:05;;;;;;;;;;;21.90;66.20;;;;;;4154498;28;19932;-55
2023/08/10 13:00:47;;;;;;;;;;;21.90;66.40;;;;;;4153551;28;20022;-54
2023/08/10 13:03:31;;;;;;;;;;;21.90;66.40;;;;;;4154167;28;20079;-55
2023/08/10 13:06:12;;;;;;;;;;;21.90;66.40;;;;;;4151900;28;19933;-58
2023/08/10 13:08:56;;;;;;;;;;;21.90;66.50;;;;;;4153875;28;24047;-55
2023/08/10 13:11:37;;;;;;;;;;;21.90;66.50;;;;;;4151878;28;19932;-55
2023/08/10 13:14:18;;;;;;;;;;;21.90;66.60;;;;;;4142254;28;19935;-55
2023/08/10 13:17:00;;;;;;;;;;;21.90;66.70;;;;;;4156473;28;19932;-52
2023/08/10 13:19:41;;;;;;;;;;;21.90;66.80;;;;;;4156278;28;19983;-55
2023/08/10 13:22:22;;;;;;;;;;;21.90;66.80;;;;;;4144113;28;19937;-54
2023/08/10 13:25:03;;;;;;;;;;;21.90;66.90;;;;;;4126196;28;20083;-51
2023/08/10 13:27:44;;;;;;;;;;;21.90;67.00;;;;;;4139478;28;19936;-51
2023/08/10 13:30:25;;;;;;;;;;;21.80;67.10;;;;;;4140192;28;20292;-52
2023/08/10 13:33:07;;;;;;;;;;;21.80;67.30;;;;;;4140758;28;19951;-52
2023/08/10 13:35:48;;;;;;;;;;;21.80;68.30;;;;;;4134751;28;19957;-51
2023/08/10 13:38:29;;;;;;;;;;;21.90;67.70;;;;;;4143928;28;19933;-52
2023/08/10 13:41:09;;;;;;;;;;;21.80;67.80;;;;;;4130799;28;19937;-51
2023/08/10 13:43:50;;;;;;;;;;;21.80;67.90;;;;;;4139844;28;19979;-52
2023/08/10 13:46:31;;;;;;;;;;;21.80;68.00;;;;;;4139839;28;19936;-51
2023/08/10 13:49:13;;;;;;;;;;;21.80;68.20;;;;;;4154321;28;20063;-53
2023/08/10 13:51:54;;;;;;;;;;;21.80;68.40;;;;;;4150647;28;19936;-51
2023/08/10 13:54:35;;;;;;;;;;;21.80;68.50;;;;;;4156470;28;19936;-52
2023/08/10 13:57:17;;;;;;;;;;;21.80;68.60;;;;;;4147157;28;19932;-51
2023/08/10 13:59:59;;;;;;;;;;;21.80;68.70;;;;;;4155722;28;19963;-56
2023/08/10 14:02:40;;;;;;;;;;;21.80;68.90;;;;;;4140341;28;19933;-55
2023/08/10 14:05:22;;;;;;;;;;;21.80;69.00;;;;;;4140020;28;20063;-54
2023/08/10 14:08:03;;;;;;;;;;;21.80;69.30;;;;;;4140459;28;19933;-54
2023/08/10 14:10:44;;;;;;;;;;;21.80;69.40;;;;;;4140717;28;19933;-55
2023/08/10 14:13:25;;;;;;;;;;;21.70;69.50;;;;;;4155780;28;19936;-54
2023/08/10 14:16:06;;;;;;;;;;;21.70;69.90;;;;;;4172998;28;20066;-52
2023/08/10 14:18:47;;;;;;;;;;;21.70;70.00;;;;;;4166946;28;20054;-51
2023/08/10 14:21:29;;;;;;;;;;;21.70;70.10;;;;;;4146928;28;19932;-50
2023/08/10 14:24:10;;;;;;;;;;;21.70;70.10;;;;;;4160402;28;19932;-51
2023/08/10 14:26:51;;;;;;;;;;;21.70;70.20;;;;;;4172276;28;19970;-51
2023/08/10 14:29:31;;;;;;;;;;;21.70;70.20;;;;;;4163777;28;19936;-55
2023/08/10 14:32:12;;;;;;;;;;;21.70;70.20;;;;;;4154463;28;19931;-53
2023/08/10 14:34:53;;;;;;;;;;;21.70;70.30;;;;;;4155508;28;19971;-53
2023/08/10 14:37:35;;;;;;;;;;;21.70;70.30;;;;;;4155663;28;19995;-54
2023/08/10 14:40:16;;;;;;;;;;;21.70;70.30;;;;;;4155891;28;19936;-53
2023/08/10 14:42:57;;;;;;;;;;;21.70;70.40;;;;;;4155341;28;19936;-54
2023/08/10 14:45:38;;;;;;;;;;;21.70;70.50;;;;;;4153457;28;19936;-55
2023/08/10 14:48:19;;;;;;;;;;;21.70;70.50;;;;;;4137849;28;19993;-55
2023/08/10 14:50:59;;;;;;;;;;;21.60;70.50;;;;;;4171503;28;19936;-55
2023/08/10 14:53:42;;;;;;;;;;;21.60;70.60;;;;;;4172187;28;20442;-54
2023/08/10 14:56:23;;;;;;;;;;;21.60;70.60;;;;;;4172024;28;19935;-54
2023/08/10 14:59:04;;;;;;;;;;;21.60;70.60;;;;;;4168292;28;19936;-54
2023/08/10 15:01:45;;;;;;;;;;;21.60;70.70;;;;;;4144641;28;19932;-53
2023/08/10 15:04:26;;;;;;;;;;;21.60;70.90;;;;;;4155347;28;19932;-54
2023/08/10 15:07:07;;;;;;;;;;;21.60;71.30;;;;;;4153636;28;19978;-53
2023/08/10 15:09:49;;;;;;;;;;;21.60;71.60;;;;;;4138499;28;19936;-55
2023/08/10 15:12:30;;;;;;;;;;;21.60;71.90;;;;;;4132505;28;19975;-54
2023/08/10 15:15:11;;;;;;;;;;;21.60;72.10;;;;;;4155432;28;19940;-55
2023/08/10 15:17:51;;;;;;;;;;;21.60;73.00;;;;;;4155687;28;19974;-51
2023/08/10 15:20:32;;;;;;;;;;;21.60;72.20;;;;;;4154253;28;19932;-54
2023/08/10 15:23:13;;;;;;;;;;;21.60;72.40;;;;;;4138562;28;19995;-54
2023/08/10 15:26:14;;;;;;;;;;;21.60;72.50;;;;;;4137306;28;19933;-55
2023/08/10 15:28:54;;;;;;;;;;;21.60;72.60;;;;;;4138411;28;20014;-51
2023/08/10 15:31:35;;;;;;;;;;;21.60;72.70;;;;;;4132674;28;20052;-52
2023/08/10 15:34:16;;;;;;;;;;;21.60;72.80;;;;;;4136625;28;20343;-51
2023/08/10 15:36:57;;;;;;;;;;;21.60;72.80;;;;;;4136672;28;20400;-55
2023/08/10 15:39:38;;;;;;;;;;;21.60;72.70;;;;;;4139119;28;19936;-54